createdAt,value
2023-09-06T00:01:13.405Z,4.03
2023-09-06T00:03:41.550Z,3.76
2023-09-06T00:06:09.605Z,3.58
2023-09-06T00:08:37.431Z,3.67
2023-09-06T00:11:08.240Z,3.41
2023-09-06T00:13:36.968Z,3.62
2023-09-06T00:16:08.718Z,3.58
2023-09-06T00:18:38.531Z,3.58
2023-09-06T00:21:07.169Z,3.89
2023-09-06T00:23:35.517Z,4.03
2023-09-06T00:26:04.385Z,3.90
2023-09-06T00:28:32.200Z,3.92
2023-09-06T00:31:00.170Z,3.81
2023-09-06T00:33:28.091Z,3.79
2023-09-06T00:35:55.932Z,3.77
2023-09-06T00:38:26.694Z,4.03
2023-09-06T00:40:55.261Z,3.84
2023-09-06T00:43:23.098Z,4.16
2023-09-06T00:45:52.505Z,3.85
2023-09-06T00:48:30.934Z,3.99
2023-09-06T00:50:59.554Z,4.08
2023-09-06T00:53:28.653Z,4.28
2023-09-06T00:55:59.929Z,4.55
2023-09-06T00:58:28.929Z,4.52
2023-09-06T01:00:59.007Z,4.65
2023-09-06T01:03:27.010Z,4.31
2023-09-06T01:06:06.883Z,4.20
2023-09-06T01:08:47.770Z,4.38
2023-09-06T01:11:22.440Z,4.28
2023-09-06T01:13:55.853Z,4.45
2023-09-06T01:16:40.041Z,4.29
2023-09-06T01:19:11.547Z,4.21
2023-09-06T01:21:51.316Z,4.04
2023-09-06T01:24:20.769Z,4.03
2023-09-06T01:26:50.021Z,4.14
2023-09-06T01:29:20.020Z,4.07
2023-09-06T01:31:48.042Z,4.13
2023-09-06T01:34:16.036Z,3.80
2023-09-06T01:36:45.284Z,3.72
2023-09-06T01:39:13.665Z,3.68
2023-09-06T01:41:42.510Z,3.75
2023-09-06T01:44:10.382Z,3.64
2023-09-06T01:46:39.194Z,4.00
2023-09-06T01:49:10.006Z,3.85
2023-09-06T01:51:37.963Z,3.79
2023-09-06T01:54:07.390Z,3.88
2023-09-06T01:56:35.214Z,4.03
2023-09-06T01:59:03.051Z,3.77
2023-09-06T02:01:32.267Z,3.89
2023-09-06T02:04:01.021Z,3.75
2023-09-06T02:06:29.304Z,3.59
2023-09-06T02:08:57.685Z,3.72
2023-09-06T02:11:25.537Z,3.62
2023-09-06T02:13:53.477Z,3.52
2023-09-06T02:16:24.069Z,3.80
2023-09-06T02:18:52.302Z,3.80
2023-09-06T02:21:20.235Z,3.66
2023-09-06T02:23:48.171Z,3.76
2023-09-06T02:26:16.127Z,3.99
2023-09-06T02:28:44.132Z,3.89
2023-09-06T02:31:15.356Z,3.80
2023-09-06T02:33:45.294Z,3.94
2023-09-06T02:36:13.172Z,3.46
2023-09-06T02:38:40.954Z,3.62
2023-09-06T02:41:08.722Z,3.76
2023-09-06T02:43:37.640Z,3.99
2023-09-06T02:46:05.516Z,3.98
2023-09-06T02:48:35.001Z,4.05
2023-09-06T02:51:03.041Z,4.00
2023-09-06T02:53:32.649Z,4.08
2023-09-06T02:56:03.212Z,4.02
2023-09-06T02:58:33.003Z,4.22
2023-09-06T03:01:07.419Z,4.23
2023-09-06T03:03:35.963Z,4.54
2023-09-06T03:06:05.792Z,4.41
2023-09-06T03:08:34.865Z,4.44
2023-09-06T03:11:07.247Z,4.40
2023-09-06T03:13:35.432Z,4.54
2023-09-06T03:16:03.907Z,4.52
2023-09-06T03:18:32.569Z,4.48
2023-09-06T03:21:06.111Z,4.56
2023-09-06T03:23:37.398Z,4.31
2023-09-06T03:26:10.698Z,4.42
2023-09-06T03:28:42.808Z,4.28
2023-09-06T03:31:20.188Z,4.25
2023-09-06T03:33:48.211Z,4.16
2023-09-06T03:36:16.112Z,3.63
2023-09-06T03:38:44.395Z,3.78
2023-09-06T03:41:12.449Z,3.49
2023-09-06T03:43:40.758Z,3.94
2023-09-06T03:46:11.372Z,4.04
2023-09-06T03:48:39.973Z,4.04
2023-09-06T03:51:08.623Z,4.26
2023-09-06T03:53:38.992Z,4.10
2023-09-06T03:56:11.838Z,4.07
2023-09-06T03:58:49.606Z,4.26
2023-09-06T04:01:17.689Z,4.62
2023-09-06T04:03:49.382Z,4.40
2023-09-06T04:06:18.406Z,4.76
2023-09-06T04:08:48.027Z,4.67
2023-09-06T04:11:18.210Z,4.43
2023-09-06T04:13:46.363Z,4.51
2023-09-06T04:16:17.625Z,4.50
2023-09-06T04:18:47.121Z,4.77
2023-09-06T04:21:15.130Z,4.79
2023-09-06T04:23:46.042Z,4.77
2023-09-06T04:26:17.494Z,4.99
2023-09-06T04:28:45.541Z,4.82
2023-09-06T04:31:19.015Z,4.86
2023-09-06T04:33:48.361Z,4.85
2023-09-06T04:36:27.263Z,5.12
2023-09-06T04:39:00.188Z,5.09
2023-09-06T04:41:32.554Z,5.15
2023-09-06T04:44:05.336Z,4.91
2023-09-06T04:46:33.628Z,4.72
2023-09-06T04:51:30.084Z,4.93
2023-09-06T04:54:01.238Z,4.71
2023-09-06T04:56:34.447Z,4.84
2023-09-06T04:59:02.529Z,4.84
2023-09-06T05:01:31.832Z,5.00
2023-09-06T05:04:00.323Z,4.72
2023-09-06T05:06:29.579Z,4.85
2023-09-06T05:08:57.892Z,4.86
2023-09-06T05:11:27.605Z,4.96
2023-09-06T05:13:56.299Z,4.84
2023-09-06T05:16:25.659Z,5.06
2023-09-06T05:18:55.008Z,5.01
2023-09-06T05:21:26.732Z,5.09
2023-09-06T05:23:54.707Z,5.09
2023-09-06T05:26:22.945Z,4.88
2023-09-06T05:28:50.950Z,5.00
2023-09-06T05:31:20.127Z,4.88
2023-09-06T05:33:49.737Z,5.05
2023-09-06T05:36:20.251Z,4.72
2023-09-06T05:38:49.046Z,4.98
2023-09-06T05:41:18.870Z,5.00
2023-09-06T05:43:47.674Z,4.95
2023-09-06T05:46:32.448Z,5.23
2023-09-06T05:49:10.556Z,5.17
2023-09-06T05:51:42.797Z,5.19
2023-09-06T05:54:11.849Z,5.53
2023-09-06T05:56:42.365Z,5.68
2023-09-06T05:59:14.610Z,5.40
2023-09-06T06:01:43.449Z,5.38
2023-09-06T06:04:12.662Z,5.93
2023-09-06T06:06:41.945Z,5.37
2023-09-06T06:09:12.681Z,5.95
2023-09-06T06:11:41.355Z,6.82
2023-09-06T06:14:11.174Z,6.52
2023-09-06T06:16:39.954Z,6.84
2023-09-06T06:19:07.938Z,6.21
2023-09-06T06:21:36.183Z,6.54
2023-09-06T06:24:09.709Z,6.44
2023-09-06T06:26:44.428Z,5.71
2023-09-06T06:29:12.436Z,6.02
2023-09-06T06:31:40.931Z,5.58
2023-09-06T06:34:08.804Z,5.66
2023-09-06T06:36:36.612Z,6.14
2023-09-06T06:39:04.827Z,6.56
2023-09-06T06:41:33.219Z,6.56
2023-09-06T06:44:01.006Z,5.85
2023-09-06T06:46:30.941Z,5.83
2023-09-06T06:48:58.957Z,5.46
2023-09-06T06:51:28.025Z,5.86
2023-09-06T06:53:55.878Z,5.85
2023-09-06T06:56:23.777Z,5.80
2023-09-06T06:58:52.252Z,5.18
2023-09-06T07:01:22.316Z,4.50
2023-09-06T07:03:50.763Z,4.31
2023-09-06T07:06:19.228Z,4.10
2023-09-06T07:08:47.895Z,4.40
2023-09-06T07:11:15.629Z,4.14
2023-09-06T07:13:43.966Z,4.43
2023-09-06T07:16:12.135Z,4.12
2023-09-06T07:18:40.137Z,3.95
2023-09-06T07:21:08.579Z,4.31
2023-09-06T07:23:36.891Z,4.13
2023-09-06T07:26:05.654Z,3.95
2023-09-06T07:28:43.850Z,3.93
2023-09-06T07:31:12.232Z,4.14
2023-09-06T07:34:14.003Z,4.36
2023-09-06T07:36:41.826Z,4.26
2023-09-06T07:39:10.316Z,4.24
2023-09-06T07:41:39.836Z,4.03
2023-09-06T07:44:11.114Z,4.13
2023-09-06T07:46:41.194Z,4.21
2023-09-06T07:49:10.251Z,3.92
2023-09-06T07:51:38.143Z,3.98
2023-09-06T07:54:06.028Z,4.11
2023-09-06T07:56:34.029Z,3.98
2023-09-06T07:59:01.751Z,4.51
2023-09-06T08:01:29.661Z,4.51
2023-09-06T08:03:59.558Z,4.21
2023-09-06T08:06:27.658Z,4.68
2023-09-06T08:08:55.643Z,4.62
2023-09-06T08:11:23.425Z,4.52
2023-09-06T08:13:51.632Z,4.64
2023-09-06T08:16:20.677Z,4.66
2023-09-06T08:18:48.737Z,4.94
2023-09-06T08:21:17.433Z,4.97
2023-09-06T08:23:45.327Z,4.78
2023-09-06T08:26:13.070Z,4.60
2023-09-06T08:28:41.163Z,4.65
2023-09-06T08:31:09.670Z,4.55
2023-09-06T08:33:37.843Z,4.25
2023-09-06T08:36:05.958Z,4.42
2023-09-06T08:38:34.828Z,4.11
2023-09-06T08:41:04.208Z,4.02
2023-09-06T08:43:39.970Z,4.09
2023-09-06T08:46:22.499Z,3.99
2023-09-06T08:48:52.756Z,3.99
2023-09-06T08:51:22.642Z,3.95
2023-09-06T08:53:51.251Z,4.20
2023-09-06T08:56:19.506Z,4.38
2023-09-06T08:58:47.312Z,4.36
2023-09-06T09:01:15.041Z,4.20
2023-09-06T09:03:43.827Z,4.41
2023-09-06T09:06:12.022Z,4.23
2023-09-06T09:08:41.085Z,3.69
2023-09-06T09:11:12.841Z,3.48
2023-09-06T09:13:45.465Z,3.55
2023-09-06T09:16:16.178Z,4.06
2023-09-06T09:18:46.543Z,3.90
2023-09-06T09:21:15.366Z,3.81
2023-09-06T09:23:56.941Z,3.72
2023-09-06T09:26:24.956Z,3.78
2023-09-06T09:28:52.905Z,3.81
2023-09-06T09:31:20.910Z,3.76
2023-09-06T09:33:56.051Z,4.13
2023-09-06T09:36:24.102Z,3.88
2023-09-06T09:38:54.124Z,3.83
2023-09-06T09:41:22.361Z,3.74
2023-09-06T09:43:50.192Z,3.58
2023-09-06T09:46:31.561Z,3.74
2023-09-06T09:49:05.492Z,3.82
2023-09-06T09:51:35.774Z,3.49
2023-09-06T09:54:06.049Z,3.19
2023-09-06T09:56:38.677Z,3.46
2023-09-06T09:59:06.898Z,3.36
2023-09-06T10:01:34.826Z,3.28
2023-09-06T10:04:07.146Z,3.47
2023-09-06T10:06:35.952Z,3.56
2023-09-06T10:09:13.411Z,3.84
2023-09-06T10:11:42.056Z,3.65
2023-09-06T10:14:12.447Z,3.83
2023-09-06T10:16:41.336Z,3.88
2023-09-06T10:19:09.776Z,4.03
2023-09-06T10:21:38.095Z,3.98
2023-09-06T10:24:19.997Z,3.77
2023-09-06T10:26:50.238Z,3.85
2023-09-06T10:29:25.886Z,3.70
2023-09-06T10:31:55.226Z,3.94
2023-09-06T10:34:24.740Z,3.52
2023-09-06T10:37:01.920Z,3.65
2023-09-06T10:39:32.440Z,3.66
2023-09-06T10:42:12.786Z,3.55
2023-09-06T10:44:56.192Z,3.57
2023-09-06T10:47:28.820Z,3.51
2023-09-06T10:50:19.109Z,3.26
2023-09-06T10:52:53.174Z,3.31
2023-09-06T10:55:25.263Z,3.38
2023-09-06T10:58:12.442Z,3.65
2023-09-06T11:00:42.266Z,3.55
2023-09-06T11:03:10.166Z,3.22
2023-09-06T11:05:43.609Z,3.64
2023-09-06T11:08:31.301Z,3.03
2023-09-06T11:11:09.158Z,3.17
2023-09-06T11:13:39.376Z,3.28
2023-09-06T11:16:14.132Z,3.28
2023-09-06T11:18:51.252Z,3.31
2023-09-06T11:21:26.359Z,3.20
2023-09-06T11:23:55.482Z,3.31
2023-09-06T11:26:23.365Z,3.24
2023-09-06T11:29:05.403Z,3.19
2023-09-06T11:31:36.151Z,3.26
2023-09-06T11:34:06.147Z,3.25
2023-09-06T11:36:37.926Z,3.31
2023-09-06T11:39:17.289Z,3.31
2023-09-06T11:41:46.493Z,3.16
2023-09-06T11:44:16.454Z,3.34
2023-09-06T11:46:45.260Z,3.73
2023-09-06T11:49:15.997Z,3.39
2023-09-06T11:51:47.667Z,3.57
2023-09-06T11:54:17.296Z,3.25
2023-09-06T11:56:48.981Z,3.25
2023-09-06T11:59:19.071Z,3.31
2023-09-06T12:01:47.358Z,3.34
2023-09-06T12:04:17.406Z,3.38
2023-09-06T12:06:46.189Z,3.47
2023-09-06T12:09:14.157Z,3.52
2023-09-06T12:11:42.200Z,3.63
2023-09-06T12:14:14.598Z,3.30
2023-09-06T12:16:43.685Z,3.38
2023-09-06T12:19:17.748Z,3.37
2023-09-06T12:21:45.596Z,3.43
2023-09-06T12:24:13.570Z,3.54
2023-09-06T12:26:41.507Z,3.50
2023-09-06T12:29:09.390Z,3.38
2023-09-06T12:31:37.191Z,3.49
2023-09-06T12:34:05.332Z,3.25
2023-09-06T12:36:33.354Z,3.35
2023-09-06T12:39:01.089Z,3.37
2023-09-06T12:41:29.045Z,3.44
2023-09-06T12:43:56.929Z,3.41
2023-09-06T12:46:24.793Z,3.59
2023-09-06T12:48:52.778Z,3.69
2023-09-06T12:51:20.621Z,3.27
2023-09-06T12:53:48.361Z,3.41
2023-09-06T12:56:18.199Z,3.53
2023-09-06T12:58:47.665Z,3.53
2023-09-06T13:01:15.733Z,3.66
2023-09-06T13:03:48.576Z,3.28
2023-09-06T13:06:16.675Z,3.39
2023-09-06T13:08:49.910Z,3.76
2023-09-06T13:11:17.941Z,3.27
2023-09-06T13:13:45.737Z,3.70
2023-09-06T13:16:13.696Z,3.41
2023-09-06T13:18:42.793Z,3.21
2023-09-06T13:21:11.163Z,3.49
2023-09-06T13:23:39.587Z,3.47
2023-09-06T13:26:08.343Z,3.35
2023-09-06T13:28:36.323Z,3.12
2023-09-06T13:31:05.081Z,3.59
2023-09-06T13:33:36.392Z,3.69
2023-09-06T13:36:07.785Z,3.44
2023-09-06T13:38:35.755Z,3.54
2023-09-06T13:41:04.052Z,3.44
2023-09-06T13:43:32.250Z,3.50
2023-09-06T13:46:01.004Z,3.08
2023-09-06T13:48:28.904Z,3.38
2023-09-06T13:50:56.775Z,3.47
2023-09-06T13:53:24.580Z,3.39
2023-09-06T13:55:52.322Z,3.31
2023-09-06T13:58:20.119Z,3.48
2023-09-06T14:00:54.090Z,3.47
2023-09-06T14:03:21.982Z,3.71
2023-09-06T14:05:51.044Z,3.73
2023-09-06T14:08:19.152Z,3.75
2023-09-06T14:10:50.764Z,3.73
2023-09-06T14:13:18.602Z,3.46
2023-09-06T14:15:46.450Z,3.68
2023-09-06T14:18:14.357Z,3.49
2023-09-06T14:20:42.276Z,3.35
2023-09-06T14:23:12.138Z,3.50
2023-09-06T14:25:41.564Z,3.31
2023-09-06T14:28:10.141Z,3.54
2023-09-06T14:30:42.164Z,3.63
2023-09-06T14:33:10.964Z,3.62
2023-09-06T14:35:43.773Z,3.52
2023-09-06T14:38:11.959Z,3.67
2023-09-06T14:40:41.049Z,3.66
2023-09-06T14:43:08.931Z,3.64
2023-09-06T14:45:37.874Z,3.66
2023-09-06T14:48:06.889Z,3.58
2023-09-06T14:50:35.967Z,3.59
2023-09-06T14:53:04.265Z,3.47
2023-09-06T14:55:32.750Z,3.42
2023-09-06T14:58:01.298Z,3.25
2023-09-06T15:00:29.607Z,3.27
2023-09-06T15:02:57.920Z,3.52
2023-09-06T15:05:25.765Z,3.43
2023-09-06T15:07:53.538Z,3.60
2023-09-06T15:10:21.554Z,3.43
2023-09-06T15:12:49.464Z,3.76
2023-09-06T15:15:17.235Z,3.66
2023-09-06T15:17:45.302Z,3.73
2023-09-06T15:20:13.561Z,4.00
2023-09-06T15:22:41.892Z,3.73
2023-09-06T15:25:12.382Z,3.72
2023-09-06T15:27:41.579Z,3.66
2023-09-06T15:30:09.541Z,3.63
2023-09-06T15:32:37.497Z,3.72
2023-09-06T15:35:08.813Z,3.73
2023-09-06T15:37:37.364Z,3.85
2023-09-06T15:40:06.859Z,3.90
2023-09-06T15:42:34.827Z,4.01
2023-09-06T15:45:02.800Z,4.21
2023-09-06T15:47:30.960Z,3.92
2023-09-06T15:49:58.766Z,3.93
2023-09-06T15:52:26.922Z,3.69
2023-09-06T15:54:54.772Z,3.82
2023-09-06T15:57:22.548Z,3.95
2023-09-06T15:59:50.330Z,4.25
2023-09-06T16:02:18.595Z,3.93
2023-09-06T16:04:47.672Z,4.07
2023-09-06T16:07:15.378Z,4.42
2023-09-06T16:09:43.326Z,4.41
2023-09-06T16:12:11.238Z,4.28
2023-09-06T16:14:39.192Z,4.38
2023-09-06T16:17:07.009Z,4.59
2023-09-06T16:19:34.738Z,4.53
2023-09-06T16:22:05.903Z,4.62
2023-09-06T16:24:33.976Z,4.65
2023-09-06T16:27:01.844Z,4.59
2023-09-06T16:29:32.935Z,4.51
2023-09-06T16:32:01.042Z,4.43
2023-09-06T16:34:28.971Z,4.53
2023-09-06T16:36:56.691Z,4.51
2023-09-06T16:39:24.607Z,4.78
2023-09-06T16:41:52.536Z,4.75
2023-09-06T16:44:20.435Z,4.87
2023-09-06T16:46:48.341Z,4.58
2023-09-06T16:49:16.112Z,4.98
2023-09-06T16:51:44.975Z,4.72
2023-09-06T16:54:12.829Z,4.60
2023-09-06T16:56:40.797Z,4.87
2023-09-06T16:59:10.237Z,4.79
2023-09-06T17:01:38.244Z,4.82
2023-09-06T17:04:06.654Z,4.79
2023-09-06T17:06:35.087Z,5.12
2023-09-06T17:09:09.552Z,4.93
2023-09-06T17:11:50.008Z,4.77
2023-09-06T17:14:17.731Z,4.77
2023-09-06T17:16:45.642Z,4.76
2023-09-06T17:19:13.313Z,5.14
2023-09-06T17:21:41.520Z,4.77
2023-09-06T17:24:10.264Z,4.94
2023-09-06T17:26:38.363Z,4.93
2023-09-06T17:29:07.333Z,5.20
2023-09-06T17:31:37.920Z,4.70
2023-09-06T17:34:07.052Z,5.01
2023-09-06T17:36:37.449Z,4.76
2023-09-06T17:39:09.289Z,5.20
2023-09-06T17:41:40.663Z,5.49
2023-09-06T17:44:08.788Z,4.95
2023-09-06T17:46:37.399Z,5.15
2023-09-06T17:49:09.856Z,5.08
2023-09-06T17:51:40.155Z,5.16
2023-09-06T17:54:08.266Z,5.44
2023-09-06T17:56:37.615Z,5.26
2023-09-06T17:59:08.534Z,5.71
2023-09-06T18:01:37.183Z,4.99
2023-09-06T18:04:07.052Z,4.96
2023-09-06T18:06:35.267Z,5.01
2023-09-06T18:09:08.945Z,5.14
2023-09-06T18:11:37.384Z,5.42
2023-09-06T18:14:09.280Z,5.08
2023-09-06T18:16:43.572Z,5.30
2023-09-06T18:19:13.034Z,5.39
2023-09-06T18:21:42.239Z,5.22
2023-09-06T18:24:15.282Z,5.25
2023-09-06T18:26:48.578Z,5.63
2023-09-06T18:29:22.144Z,5.43
2023-09-06T18:31:51.660Z,5.61
2023-09-06T18:34:19.418Z,5.44
2023-09-06T18:36:47.209Z,5.16
2023-09-06T18:39:16.195Z,5.54
2023-09-06T18:41:43.910Z,5.35
2023-09-06T18:44:11.626Z,5.77
2023-09-06T18:46:40.266Z,5.57
2023-09-06T18:49:08.336Z,6.00
2023-09-06T18:51:36.329Z,6.06
2023-09-06T18:54:04.575Z,5.49
2023-09-06T18:56:35.620Z,6.14
2023-09-06T18:59:04.412Z,5.80
2023-09-06T19:01:34.245Z,5.69
2023-09-06T19:04:04.466Z,6.05
2023-09-06T19:06:35.586Z,5.84
2023-09-06T19:09:09.518Z,6.13
2023-09-06T19:11:38.253Z,6.90
2023-09-06T19:14:08.820Z,7.71
2023-09-06T19:16:36.838Z,8.43
2023-09-06T19:19:07.606Z,8.80
2023-09-06T19:21:35.416Z,8.45
2023-09-06T19:24:04.291Z,7.69
2023-09-06T19:26:32.266Z,7.23
2023-09-06T19:29:00.257Z,6.68
2023-09-06T19:31:28.199Z,6.53
2023-09-06T19:33:56.061Z,6.48
2023-09-06T19:36:24.000Z,5.82
2023-09-06T19:38:53.792Z,6.87
2023-09-06T19:41:21.847Z,6.36
2023-09-06T19:43:49.832Z,6.51
2023-09-06T19:46:17.559Z,6.72
2023-09-06T19:49:03.374Z,6.61
2023-09-06T19:51:33.170Z,6.47
2023-09-06T19:54:01.232Z,6.19
2023-09-06T19:56:29.020Z,6.02
2023-09-06T19:58:57.072Z,5.85
2023-09-06T20:01:24.841Z,6.38
2023-09-06T20:03:54.110Z,6.01
2023-09-06T20:06:22.036Z,6.27
2023-09-06T20:08:49.843Z,6.24
2023-09-06T20:11:19.151Z,6.01
2023-09-06T20:13:46.984Z,5.88
2023-09-06T20:16:15.002Z,5.69
2023-09-06T20:18:42.895Z,6.07
2023-09-06T20:21:11.172Z,5.65
2023-09-06T20:23:39.191Z,5.96
2023-09-06T20:26:07.088Z,5.74
2023-09-06T20:28:36.096Z,5.95
2023-09-06T20:31:04.247Z,6.36
2023-09-06T20:33:32.139Z,6.13
2023-09-06T20:36:00.657Z,6.13
2023-09-06T20:38:28.744Z,6.24
2023-09-06T20:41:01.680Z,5.88
2023-09-06T20:43:31.765Z,6.46
2023-09-06T20:45:59.941Z,6.64
2023-09-06T20:48:30.048Z,6.50
2023-09-06T20:51:05.423Z,6.31
2023-09-06T20:53:33.688Z,6.57
2023-09-06T20:56:01.598Z,6.63
2023-09-06T20:58:29.470Z,6.71
2023-09-06T21:00:57.561Z,6.91
2023-09-06T21:03:26.393Z,6.95
2023-09-06T21:05:59.051Z,7.02
2023-09-06T21:08:27.408Z,7.05
2023-09-06T21:10:55.517Z,7.35
2023-09-06T21:13:23.391Z,7.35
2023-09-06T21:15:53.385Z,7.22
2023-09-06T21:18:21.787Z,7.06
2023-09-06T21:20:49.634Z,6.90
2023-09-06T21:23:17.432Z,7.30
2023-09-06T21:25:45.347Z,7.35
2023-09-06T21:28:13.119Z,6.97
2023-09-06T21:30:47.186Z,6.94
2023-09-06T21:33:16.264Z,6.97
2023-09-06T21:35:47.225Z,6.69
2023-09-06T21:38:15.133Z,6.72
2023-09-06T21:40:45.310Z,6.80
2023-09-06T21:43:19.228Z,6.44
2023-09-06T21:45:47.953Z,6.78
2023-09-06T21:48:17.481Z,6.74
2023-09-06T21:50:52.272Z,6.75
2023-09-06T21:53:19.994Z,6.67
2023-09-06T21:55:47.758Z,6.70
2023-09-06T21:58:15.589Z,6.44
2023-09-06T22:01:04.225Z,6.19
2023-09-06T22:03:50.388Z,6.46
2023-09-06T22:06:36.708Z,6.53
2023-09-06T22:09:24.572Z,6.75
2023-09-06T22:12:11.239Z,6.76
2023-09-06T22:14:39.020Z,6.63
2023-09-06T22:17:06.898Z,6.46
2023-09-06T22:19:35.346Z,6.52
2023-09-06T22:22:03.369Z,6.55
2023-09-06T22:24:31.532Z,6.60
2023-09-06T22:26:59.283Z,6.66
2023-09-06T22:29:27.420Z,6.72
2023-09-06T22:31:55.182Z,6.62
2023-09-06T22:34:23.274Z,6.72
2023-09-06T22:36:50.996Z,6.71
2023-09-06T22:39:18.748Z,6.98
2023-09-06T22:41:46.561Z,6.44
2023-09-06T22:44:14.326Z,6.65
2023-09-06T22:46:42.223Z,6.72
2023-09-06T22:49:10.283Z,6.81
2023-09-06T22:51:43.320Z,7.26
2023-09-06T22:54:11.854Z,7.29
2023-09-06T22:56:39.652Z,7.07
2023-09-06T22:59:07.433Z,7.01
2023-09-06T23:01:35.252Z,7.12
2023-09-06T23:04:03.215Z,7.47
2023-09-06T23:06:31.353Z,7.86
2023-09-06T23:09:01.707Z,7.49
2023-09-06T23:11:30.164Z,7.87
2023-09-06T23:13:57.890Z,7.80
2023-09-06T23:16:25.775Z,7.90
2023-09-06T23:18:55.796Z,7.83
2023-09-06T23:21:27.025Z,8.25
2023-09-06T23:23:58.716Z,8.03
2023-09-06T23:26:32.626Z,8.01
2023-09-06T23:29:07.190Z,7.88
2023-09-06T23:31:40.295Z,8.23
2023-09-06T23:34:11.262Z,7.86
2023-09-06T23:36:39.148Z,7.89
2023-09-06T23:39:07.036Z,7.72
2023-09-06T23:41:35.916Z,7.85
2023-09-06T23:44:05.501Z,7.55
2023-09-06T23:46:33.779Z,7.57
2023-09-06T23:49:03.505Z,7.73
2023-09-06T23:51:33.657Z,7.68
2023-09-06T23:54:01.374Z,7.39
2023-09-06T23:56:29.078Z,7.83
2023-09-06T23:58:56.788Z,7.30
